createdAt,value
2023-05-21T00:02:35.796Z,3.60
2023-05-21T00:07:57.031Z,4.57
2023-05-21T00:13:17.833Z,3.95
2023-05-21T00:18:40.239Z,6.38
2023-05-21T00:24:01.527Z,4.25
2023-05-21T00:29:22.306Z,4.70
2023-05-21T00:34:45.385Z,7.50
2023-05-21T00:40:07.757Z,4.82
2023-05-21T00:45:28.825Z,6.60
2023-05-21T00:50:51.187Z,7.22
2023-05-21T00:56:12.667Z,3.50
2023-05-21T01:01:33.857Z,3.60
2023-05-21T01:06:56.122Z,4.32
2023-05-21T01:12:18.256Z,4.25
2023-05-21T01:17:39.586Z,7.65
2023-05-21T01:23:03.040Z,3.15
2023-05-21T01:28:24.274Z,5.40
2023-05-21T01:33:50.126Z,4.88
2023-05-21T01:39:20.630Z,6.25
2023-05-21T01:44:42.209Z,4.28
2023-05-21T01:50:05.075Z,5.40
2023-05-21T01:55:28.204Z,3.63
2023-05-21T02:00:49.334Z,3.92
2023-05-21T02:06:10.283Z,4.78
2023-05-21T02:11:32.640Z,4.55
2023-05-21T02:16:53.759Z,6.47
2023-05-21T02:22:14.772Z,2.97
2023-05-21T02:27:38.040Z,4.38
2023-05-21T02:32:59.089Z,3.85
2023-05-21T02:38:20.175Z,4.82
2023-05-21T02:43:42.591Z,6.25
2023-05-21T02:49:03.690Z,7.78
2023-05-21T02:54:24.622Z,5.80
2023-05-21T02:59:46.993Z,4.60
2023-05-21T03:05:08.488Z,6.03
2023-05-21T03:10:29.451Z,3.58
2023-05-21T03:15:51.729Z,3.50
2023-05-21T03:21:12.576Z,4.57
2023-05-21T03:26:33.435Z,4.55
2023-05-21T03:31:56.102Z,4.88
2023-05-21T03:37:17.115Z,4.55
2023-05-21T03:42:37.750Z,6.95
2023-05-21T03:48:00.371Z,6.63
2023-05-21T03:53:21.189Z,4.60
2023-05-21T03:58:41.841Z,8.13
2023-05-21T04:04:04.268Z,3.67
2023-05-21T04:09:25.267Z,2.78
2023-05-21T04:14:46.250Z,4.43
2023-05-21T04:20:09.369Z,4.68
2023-05-21T04:25:30.323Z,6.13
2023-05-21T04:30:51.028Z,4.00
2023-05-21T04:36:13.342Z,11.80
2023-05-21T04:41:34.429Z,3.95
2023-05-21T04:46:55.188Z,4.68
2023-05-21T04:52:17.701Z,4.10
2023-05-21T04:57:38.689Z,5.78
2023-05-21T05:02:59.556Z,5.82
2023-05-21T05:08:21.651Z,3.20
2023-05-21T05:13:42.648Z,3.80
2023-05-21T05:19:03.598Z,3.58
2023-05-21T05:24:25.765Z,3.70
2023-05-21T05:29:48.059Z,6.63
2023-05-21T05:35:09.917Z,5.15
2023-05-21T05:40:32.249Z,4.80
2023-05-21T05:45:53.608Z,5.35
2023-05-21T05:51:14.803Z,4.00
2023-05-21T05:56:37.222Z,4.90
2023-05-21T06:01:57.802Z,3.53
2023-05-21T06:07:18.609Z,5.25
2023-05-21T06:12:40.950Z,8.48
2023-05-21T06:18:01.998Z,3.38
2023-05-21T06:23:22.816Z,5.00
2023-05-21T06:28:44.959Z,4.10
2023-05-21T06:34:05.723Z,3.72
2023-05-21T06:39:26.497Z,3.92
2023-05-21T06:44:48.519Z,11.23
2023-05-21T06:50:09.900Z,9.10
2023-05-21T06:55:30.591Z,7.30
2023-05-21T07:00:52.966Z,7.95
2023-05-21T07:06:13.685Z,4.00
2023-05-21T07:11:34.612Z,11.55
2023-05-21T07:16:56.845Z,4.53
2023-05-21T07:22:17.951Z,5.00
2023-05-21T07:27:38.708Z,3.95
2023-05-21T07:33:00.983Z,3.50
2023-05-21T07:38:21.938Z,2.78
2023-05-21T07:43:42.945Z,3.85
2023-05-21T07:49:05.517Z,4.25
2023-05-21T07:54:26.718Z,2.78
2023-05-21T07:59:47.478Z,4.47
2023-05-21T08:05:10.707Z,4.25
2023-05-21T08:10:31.877Z,5.35
2023-05-21T08:15:53.505Z,2.92
2023-05-21T08:21:16.232Z,3.45
2023-05-21T08:26:37.503Z,3.90
2023-05-21T08:31:58.290Z,4.35
2023-05-21T08:37:21.637Z,5.35
2023-05-21T08:42:45.065Z,4.95
2023-05-21T08:48:09.239Z,3.95
2023-05-21T08:53:33.261Z,4.28
2023-05-21T08:58:54.401Z,3.53
2023-05-21T09:04:21.399Z,8.38
2023-05-21T09:09:49.110Z,4.00
2023-05-21T09:20:32.208Z,5.55
2023-05-21T09:25:54.542Z,8.18
2023-05-21T09:31:15.664Z,7.22
2023-05-21T09:36:38.371Z,6.13
2023-05-21T09:42:00.517Z,7.10
2023-05-21T09:47:21.531Z,5.60
2023-05-21T09:52:42.438Z,5.28
2023-05-21T09:58:05.408Z,5.85
2023-05-21T10:03:28.038Z,11.30
2023-05-21T10:08:51.341Z,15.38
2023-05-21T10:14:17.375Z,9.23
2023-05-21T10:25:00.956Z,9.73
2023-05-21T10:30:24.385Z,8.50
2023-05-21T10:35:47.356Z,6.65
2023-05-21T10:41:09.863Z,10.40
2023-05-21T10:47:08.092Z,13.57
2023-05-21T10:52:46.695Z,6.88
2023-05-21T10:58:23.975Z,9.90
2023-05-21T11:03:47.029Z,7.13
2023-05-21T11:09:12.737Z,7.60
2023-05-21T11:14:35.692Z,7.37
2023-05-21T11:20:04.939Z,7.57
2023-05-21T11:25:26.015Z,9.18
2023-05-21T11:31:25.922Z,9.85
2023-05-21T11:36:49.575Z,9.15
2023-05-21T11:42:10.706Z,11.60
2023-05-21T11:47:32.357Z,10.88
2023-05-21T11:52:55.017Z,9.68
2023-05-21T11:58:18.599Z,8.45
2023-05-21T12:03:39.575Z,11.82
2023-05-21T12:09:02.162Z,8.52
2023-05-21T12:14:23.534Z,10.13
2023-05-21T12:19:45.699Z,8.10
2023-05-21T12:25:09.249Z,10.32
2023-05-21T12:30:30.312Z,9.13
2023-05-21T12:35:51.513Z,11.88
2023-05-21T12:41:13.699Z,9.45
2023-05-21T12:46:35.849Z,10.40
2023-05-21T12:51:57.390Z,11.40
2023-05-21T12:57:21.079Z,8.73
2023-05-21T13:02:44.788Z,10.43
2023-05-21T13:08:06.033Z,9.20
2023-05-21T13:13:28.477Z,7.28
2023-05-21T13:18:49.669Z,8.60
2023-05-21T13:24:10.442Z,9.73
2023-05-21T13:29:32.719Z,10.95
2023-05-21T13:34:53.840Z,7.55
2023-05-21T13:40:16.190Z,11.55
2023-05-21T13:45:38.871Z,8.20
2023-05-21T13:50:59.854Z,17.52
2023-05-21T13:56:21.787Z,9.57
2023-05-21T14:01:44.137Z,16.23
2023-05-21T14:07:05.913Z,11.82
2023-05-21T14:12:26.893Z,9.70
2023-05-21T14:17:49.182Z,11.73
2023-05-21T14:23:10.090Z,11.50
2023-05-21T14:28:31.085Z,11.43
2023-05-21T14:33:53.293Z,11.10
2023-05-21T14:39:14.633Z,8.70
2023-05-21T14:44:35.431Z,9.02
2023-05-21T14:49:58.189Z,8.70
2023-05-21T14:55:19.336Z,9.15
2023-05-21T15:00:40.045Z,13.57
2023-05-21T15:06:02.286Z,8.55
2023-05-21T15:11:23.301Z,9.48
2023-05-21T15:16:44.374Z,9.48
2023-05-21T15:22:06.972Z,11.43
2023-05-21T15:27:28.105Z,11.52
2023-05-21T15:32:49.031Z,11.27
2023-05-21T15:38:11.285Z,12.70
2023-05-21T15:43:32.858Z,12.82
2023-05-21T15:48:53.654Z,13.98
2023-05-21T15:54:15.916Z,11.90
2023-05-21T15:59:36.872Z,11.00
2023-05-21T16:04:57.760Z,15.60
2023-05-21T16:10:20.095Z,12.55
2023-05-21T16:15:40.895Z,10.15
2023-05-21T16:21:03.193Z,11.38
2023-05-21T16:26:25.684Z,11.38
2023-05-21T16:31:47.802Z,8.77
2023-05-21T16:37:08.729Z,10.07
2023-05-21T16:42:30.934Z,10.93
2023-05-21T16:47:52.276Z,12.02
2023-05-21T16:53:13.207Z,8.90
2023-05-21T16:58:35.866Z,10.68
2023-05-21T17:03:57.050Z,9.65
2023-05-21T17:09:18.901Z,9.63
2023-05-21T17:14:41.601Z,9.85
2023-05-21T17:20:02.696Z,10.15
2023-05-21T17:25:23.557Z,12.32
2023-05-21T17:30:46.866Z,10.40
2023-05-21T17:36:09.828Z,14.65
2023-05-21T17:41:30.873Z,11.48
2023-05-21T17:46:54.074Z,9.10
2023-05-21T17:52:15.142Z,17.30
2023-05-21T17:57:35.987Z,13.93
2023-05-21T18:02:58.790Z,11.38
2023-05-21T18:08:20.074Z,13.60
2023-05-21T18:13:40.804Z,12.75
2023-05-21T18:19:03.277Z,9.77
2023-05-21T18:24:24.273Z,11.55
2023-05-21T18:29:45.175Z,10.15
2023-05-21T18:35:08.445Z,8.93
2023-05-21T18:40:30.728Z,12.57
2023-05-21T18:45:51.682Z,11.85
2023-05-21T18:51:13.872Z,10.75
2023-05-21T18:56:34.851Z,11.30
2023-05-21T19:01:56.079Z,12.80
2023-05-21T19:07:18.558Z,8.55
2023-05-21T19:12:39.890Z,9.40
2023-05-21T19:18:01.950Z,9.05
2023-05-21T19:23:24.164Z,8.55
2023-05-21T19:28:45.225Z,9.73
2023-05-21T19:34:06.029Z,8.23
2023-05-21T19:39:30.170Z,13.10
2023-05-21T19:44:51.218Z,9.45
2023-05-21T19:50:12.179Z,9.60
2023-05-21T19:55:34.789Z,10.40
2023-05-21T20:00:55.946Z,9.93
2023-05-21T20:06:17.154Z,12.07
2023-05-21T20:11:39.529Z,8.93
2023-05-21T20:17:00.795Z,10.25
2023-05-21T20:22:22.024Z,11.68
2023-05-21T20:27:44.317Z,7.70
2023-05-21T20:33:05.293Z,9.48
2023-05-21T20:38:26.410Z,10.95
2023-05-21T20:43:48.955Z,7.53
2023-05-21T20:49:09.950Z,6.63
2023-05-21T20:54:32.002Z,10.68
2023-05-21T20:59:54.382Z,9.13
2023-05-21T21:05:15.314Z,8.63
2023-05-21T21:10:36.400Z,8.77
2023-05-21T21:15:58.994Z,10.13
2023-05-21T21:21:20.214Z,8.30
2023-05-21T21:26:40.971Z,12.27
2023-05-21T21:32:03.452Z,7.40
2023-05-21T21:37:24.635Z,8.50
2023-05-21T21:42:45.398Z,10.68
2023-05-21T21:48:07.994Z,15.32
2023-05-21T21:53:28.774Z,8.25
2023-05-21T21:58:49.485Z,8.77
2023-05-21T22:04:11.799Z,11.65
2023-05-21T22:09:32.968Z,12.82
2023-05-21T22:14:53.812Z,10.73
2023-05-21T22:20:16.174Z,10.35
2023-05-21T22:25:37.213Z,11.23
2023-05-21T22:30:58.109Z,10.70
2023-05-21T22:36:20.400Z,12.48
2023-05-21T22:41:41.112Z,12.73
2023-05-21T22:47:01.954Z,8.95
2023-05-21T22:52:24.209Z,10.50
2023-05-21T22:57:45.371Z,7.85
2023-05-21T23:03:06.333Z,11.02
2023-05-21T23:08:28.384Z,8.50
2023-05-21T23:13:49.017Z,9.95
2023-05-21T23:19:09.805Z,8.18
2023-05-21T23:24:32.302Z,8.00
2023-05-21T23:29:52.913Z,14.35
2023-05-21T23:35:13.682Z,11.77
2023-05-21T23:40:35.975Z,8.38
2023-05-21T23:45:56.935Z,9.82
2023-05-21T23:51:18.480Z,11.57
2023-05-21T23:56:40.940Z,11.10
